OEMA/MED METAR and TAF weather

Enter ICAO airport designator
Station Type Date Time Source
OEMA METAR 2021/03/03 20:00 UTC NOAA

OEMA 032000Z 25004KT CAVOK 23/11 Q1016 NOSIG


Station Type Date Time Source
OEMA Decoded METAR 2021/03/03 20:00 UTC NOAA

Madinah, Saudi Arabia (OEMA) 24-33N 039-42E 636M
Mar 03, 2021 - 03:00 PM EST / 2021.03.03 2000 UTC
Wind: from the WSW (250 degrees) at 5 MPH (4 KT):0
Visibility: greater than 7 mile(s):0
Temperature: 73 F (23 C)
Dew Point: 51 F (11 C)
Relative Humidity: 46%
Pressure (altimeter): 30.00 in. Hg (1016 hPa)
ob: OEMA 032000Z 25004KT CAVOK 23/11 Q1016 NOSIG
cycle: 20

Station Type Date Time Source
OEMA TAF 2021/03/03 18:33 UTC NOAA

TAF OEMA 031700Z 0318/0424 VRB03KT 9999 FEW045
BECMG 0406/0408 27010KT CAVOK

Example: see airport list